Ana Sayfa
METAR-TAF:

METAR-TAF

Havaalanları :

Şam Havalimanı

Şam, Suriye

Enlem: 33-25N, Boylam: 036-31E, yükseklik: 608 m

Güncel hava durumu gözlemi

Rapor saat 07:15 UTC de 33 dakika önce yapıldı.
Rüzgar doğudan 4 kt
Sıcaklık
Basınç 1023 hPa
Görüş mesafesi: 0900 m
sis

METAR: OSDI 200715Z 10004KT 0900 R23/0900 FG Q1023

Saat: 09:48 (07:48 UTC)

Tahmin

Rapor saat 23:00 UTC de 8 saat ve 48 dakika önce yapıldı.
Ayın 20'si saat 00 UTC'den ayın 21'si saat 06 UTC'ye kadar geçerli Tahmin
Rüzgar değişken yönden 3 kt
Geçici
ayın 20'si saat 00 UTC'den ayın 20'si saat 06 UTC'ye kadar
Rüzgar değişken yönden 3 kt
700 ft yükseklikte parçalı bulutlu
Dönüşüyor
ayın 20'si saat 08 UTC'den ayın 20'si saat 10 UTC'ye kadar
Rüzgar güneybatıdan 10 kt ve 20 kt'a kadar ani rüzgarlar
Görüş mesafesi 10 km veya daha fazla
3000 ft yükseklikte az bulutlu

TAF: OSDI 192300Z 2000/2106 VRB03KT 2000BR TEMPO 2000/2006 VRB03KT 0200FG SCT007 BECMG 2008/2010 22010G20KT 9999 FEW030

4.000'den fazla havaalanı için hava durumu gözlemleri ve tahminleri (METAR ve TAF raporları).

Kullanılabilir istasyonlar harita üzerinde sarı ve kırmızı noktalarla gösterilir.

İstasyonun adını görmek için fareyi noktanın üzerinde gezdirin.

Sonrasında hava gözlem ve tahminlerini görmek için tıklayın.

Haritayı değiştirmek için: yaklaştırmak için siyah artı işaretli yeşil düğmeye ve uzaklaştırmak için de eksi işaretli düğmeye hızla tıklayın; bitişik haritalar için yeşil okları kullanın.


METAR-TAF: